This is the latest recevied weather packets stored in our database for station/object HK6RM-20. If no packets are shown the sender has not sent any weather packets the latest 10 day(s).
| Time | Temp. | Humidity | Pressure | Rain* | Wind** | Luminosity | Snow |
|---|---|---|---|---|---|---|---|
| 1777921154 | 28.33° C | 66% | 1009 hPa | 0 mm | - | - | - |
| 1777920373 | 28.89° C | 66% | 1009 hPa | 0 mm | - | - | - |
| 1777919593 | 27.78° C | 68% | 1009 hPa | 0 mm | - | - | - |
| 1777918812 | 28.33° C | 68% | 1010 hPa | 0 mm | - | - | - |
| 1777918031 | 28.89° C | 68% | 1010 hPa | 0 mm | - | - | - |
| 1777917249 | 29.44° C | 68% | 1010 hPa | 0 mm | - | - | - |
| 1777916468 | 27.22° C | 73% | 1011 hPa | 0 mm | - | - | - |
| 1777915687 | 27.78° C | 73% | 1012 hPa | 0 mm | - | - | - |
| 1777914907 | 28.33° C | 73% | 1012 hPa | 0 mm | - | - | - |
| 1777914125 | 27.22° C | 71% | 1012 hPa | 0 mm | - | - | - |
| 1777913344 | 27.78° C | 71% | 1012 hPa | 0 mm | - | - | - |
| 1777912563 | 28.33° C | 71% | 1012 hPa | 0 mm | - | - | - |
| 1777911782 | 27.22° C | 75% | 1013 hPa | 0 mm | - | - | - |
| 1777911001 | 27.78° C | 75% | 1013 hPa | 0 mm | - | - | - |
| 1777910221 | 27.22° C | 72% | 1013 hPa | 0 mm | - | - | - |
| 1777909438 | 27.78° C | 72% | 1013 hPa | 0 mm | - | - | - |
| 1777908656 | 26.11° C | 80% | 1013 hPa | 0 mm | - | - | - |
| 1777907876 | 26.67° C | 80% | 1014 hPa | 0 mm | - | - | - |
| 1777907095 | 25.56° C | 77% | 1014 hPa | 0 mm | - | - | - |
| 1777906315 | 26.11° C | 77% | 1014 hPa | 0 mm | - | - | - |
| 1777905534 | 24.44° C | 89% | 1014 hPa | 0 mm | - | - | - |
| 1777904753 | 25° C | 89% | 1015 hPa | 0 mm | - | - | - |
| 1777903973 | 23.33° C | 88% | 1015 hPa | 0 mm | - | - | - |
| 1777903192 | 23.89° C | 88% | 1015 hPa | 0 mm | - | - | - |
| 1777902412 | 24.44° C | 88% | 1015 hPa | 0 mm | - | - | - |
* Rain latest hour (hover to see other rain measurements)
** Current wind speed in m/s (hover to see current wind gust speed)